createdAt,value
2024-05-09T00:00:57.948Z,99.99
2024-05-09T00:01:57.929Z,99.99
2024-05-09T00:02:57.880Z,99.99
2024-05-09T00:03:57.917Z,99.99
2024-05-09T00:04:57.949Z,99.99
2024-05-09T00:05:57.889Z,99.99
2024-05-09T00:06:57.872Z,99.99
2024-05-09T00:07:57.859Z,99.99
2024-05-09T00:08:57.796Z,99.99
2024-05-09T00:09:57.859Z,99.99
2024-05-09T00:10:57.895Z,99.99
2024-05-09T00:11:57.944Z,99.99
2024-05-09T00:12:57.777Z,99.99
2024-05-09T00:13:57.774Z,99.99
2024-05-09T00:14:57.917Z,99.99
2024-05-09T00:15:58.203Z,99.99
2024-05-09T00:16:57.696Z,99.99
2024-05-09T00:17:57.780Z,99.99
2024-05-09T00:18:57.890Z,99.99
2024-05-09T00:19:57.678Z,99.99
2024-05-09T00:20:57.833Z,99.99
2024-05-09T00:21:57.653Z,99.99
2024-05-09T00:22:57.687Z,99.99
2024-05-09T00:23:57.613Z,99.99
2024-05-09T00:24:58.502Z,99.99
2024-05-09T00:25:57.616Z,99.99
2024-05-09T00:26:57.597Z,99.99
2024-05-09T00:27:57.560Z,99.99
2024-05-09T00:28:57.609Z,99.99
2024-05-09T00:29:57.531Z,99.99
2024-05-09T00:30:57.507Z,99.99
2024-05-09T00:31:57.648Z,99.99
2024-05-09T00:32:57.703Z,99.99
2024-05-09T00:33:57.961Z,99.99
2024-05-09T00:34:57.620Z,99.99
2024-05-09T00:35:57.490Z,99.99
2024-05-09T00:36:57.465Z,99.99
2024-05-09T00:37:57.504Z,99.99
2024-05-09T00:38:57.443Z,99.99
2024-05-09T00:39:57.412Z,99.99
2024-05-09T00:40:57.468Z,99.99
2024-05-09T00:41:57.400Z,99.99
2024-05-09T00:42:57.396Z,99.99
2024-05-09T00:43:57.412Z,99.99
2024-05-09T00:44:57.375Z,99.99
2024-05-09T00:45:57.333Z,99.99
2024-05-09T00:46:57.327Z,99.99
2024-05-09T00:47:57.604Z,99.99
2024-05-09T00:48:57.482Z,99.99
2024-05-09T00:49:57.302Z,99.99
2024-05-09T00:50:57.360Z,99.99
2024-05-09T00:51:57.246Z,99.99
2024-05-09T00:52:57.252Z,99.99
2024-05-09T00:53:57.266Z,99.99
2024-05-09T00:54:57.202Z,99.99
2024-05-09T00:55:57.802Z,99.99
2024-05-09T00:56:57.199Z,99.99
2024-05-09T00:57:57.180Z,99.99
2024-05-09T00:58:57.162Z,99.99
2024-05-09T00:59:57.174Z,99.99
2024-05-09T01:00:57.176Z,99.99
2024-05-09T01:01:57.193Z,99.99
2024-05-09T01:02:57.170Z,99.99
2024-05-09T01:03:57.265Z,99.99
2024-05-09T01:04:57.167Z,99.99
2024-05-09T01:05:57.096Z,99.99
2024-05-09T01:06:57.048Z,99.99
2024-05-09T01:07:57.160Z,99.99
2024-05-09T01:08:57.022Z,99.99
2024-05-09T01:09:57.031Z,99.99
2024-05-09T01:10:57.061Z,99.99
2024-05-09T01:11:57.100Z,99.99
2024-05-09T01:12:57.144Z,99.99
2024-05-09T01:13:57.016Z,99.99
2024-05-09T01:14:56.983Z,99.99
2024-05-09T01:15:56.932Z,99.99
2024-05-09T01:16:56.960Z,99.99
2024-05-09T01:17:57.452Z,99.99
2024-05-09T01:18:57.002Z,99.99
2024-05-09T01:19:56.991Z,99.99
2024-05-09T01:20:56.950Z,99.99
2024-05-09T01:21:56.960Z,99.99
2024-05-09T01:22:56.868Z,99.99
2024-05-09T01:23:57.791Z,99.99
2024-05-09T01:24:56.821Z,99.99
2024-05-09T01:25:58.355Z,99.99
2024-05-09T01:26:56.789Z,99.99
2024-05-09T01:27:56.770Z,99.99
2024-05-09T01:28:56.799Z,99.99
2024-05-09T01:29:56.964Z,99.99
2024-05-09T01:30:56.770Z,99.99
2024-05-09T01:31:56.786Z,99.99
2024-05-09T01:32:56.920Z,99.99
2024-05-09T01:33:56.814Z,99.99
2024-05-09T01:34:56.796Z,99.99
2024-05-09T01:35:56.694Z,99.99
2024-05-09T01:36:56.677Z,99.99
2024-05-09T01:37:56.748Z,99.99
2024-05-09T01:38:56.663Z,99.99
2024-05-09T01:39:57.493Z,99.99
2024-05-09T01:40:56.730Z,99.99
2024-05-09T01:41:56.636Z,99.99
2024-05-09T01:42:56.591Z,99.99
2024-05-09T01:43:56.655Z,99.99
2024-05-09T01:44:56.561Z,99.99
2024-05-09T01:45:56.571Z,99.99
2024-05-09T01:46:56.568Z,99.99
2024-05-09T01:47:56.780Z,99.99
2024-05-09T01:48:56.646Z,99.99
2024-05-09T01:49:56.564Z,99.99
2024-05-09T01:50:56.510Z,99.99
2024-05-09T01:51:56.455Z,99.99
2024-05-09T01:52:56.554Z,99.99
2024-05-09T01:53:56.447Z,99.99
2024-05-09T01:54:56.452Z,99.99
2024-05-09T01:55:56.437Z,99.99
2024-05-09T01:56:56.407Z,99.99
2024-05-09T01:57:56.388Z,99.99
2024-05-09T01:58:56.426Z,99.99
2024-05-09T01:59:56.390Z,99.99
2024-05-09T02:00:56.390Z,99.99
2024-05-09T02:01:57.747Z,99.99
2024-05-09T02:02:56.534Z,99.99
2024-05-09T02:03:56.497Z,99.99
2024-05-09T02:04:56.471Z,99.99
2024-05-09T02:05:56.405Z,99.99
2024-05-09T02:06:57.721Z,99.99
2024-05-09T02:07:56.348Z,99.99
2024-05-09T02:08:56.263Z,99.99
2024-05-09T02:09:56.219Z,99.99
2024-05-09T02:10:56.338Z,99.99
2024-05-09T02:11:56.327Z,99.99
2024-05-09T02:12:56.176Z,99.99
2024-05-09T02:13:56.172Z,99.99
2024-05-09T02:14:56.220Z,99.99
2024-05-09T02:15:56.151Z,99.99
2024-05-09T02:16:56.233Z,99.99
2024-05-09T02:17:56.321Z,99.99
2024-05-09T02:18:56.193Z,99.99
2024-05-09T02:19:56.122Z,99.99
2024-05-09T02:20:56.196Z,99.99
2024-05-09T02:21:56.076Z,99.99
2024-05-09T02:22:56.075Z,99.99
2024-05-09T02:23:56.058Z,99.99
2024-05-09T02:24:56.052Z,99.99
2024-05-09T02:25:56.115Z,99.99
2024-05-09T02:26:56.023Z,99.99
2024-05-09T02:27:56.001Z,99.99
2024-05-09T02:28:56.105Z,99.99
2024-05-09T02:29:56.022Z,99.99
2024-05-09T02:30:55.998Z,99.99
2024-05-09T02:31:56.018Z,99.99
2024-05-09T02:32:56.085Z,99.99
2024-05-09T02:33:56.139Z,99.99
2024-05-09T02:34:56.011Z,99.99
2024-05-09T02:35:55.941Z,99.99
2024-05-09T02:36:55.901Z,99.99
2024-05-09T02:37:55.971Z,99.99
2024-05-09T02:38:55.888Z,99.99
2024-05-09T02:39:55.847Z,99.99
2024-05-09T02:40:55.875Z,99.99
2024-05-09T02:41:55.813Z,99.99
2024-05-09T02:42:55.843Z,99.99
2024-05-09T02:43:55.871Z,99.99
2024-05-09T02:44:55.787Z,99.99
2024-05-09T02:45:55.766Z,99.99
2024-05-09T02:46:55.797Z,99.99
2024-05-09T02:47:55.952Z,99.99
2024-05-09T02:48:55.844Z,99.99
2024-05-09T02:49:55.730Z,99.99
2024-05-09T02:50:55.754Z,99.99
2024-05-09T02:51:55.738Z,99.99
2024-05-09T02:52:55.813Z,99.99
2024-05-09T02:53:55.820Z,99.99
2024-05-09T02:54:55.730Z,99.99
2024-05-09T02:55:55.758Z,99.99
2024-05-09T02:56:55.643Z,99.99
2024-05-09T02:57:55.635Z,99.99
2024-05-09T02:58:55.712Z,99.99
2024-05-09T02:59:55.683Z,99.99
2024-05-09T03:00:55.633Z,99.99
2024-05-09T03:01:55.650Z,99.99
2024-05-09T03:02:55.669Z,99.99
2024-05-09T03:03:55.820Z,99.99
2024-05-09T03:04:55.732Z,99.99
2024-05-09T03:05:55.533Z,99.99
2024-05-09T03:06:55.647Z,99.99
2024-05-09T03:07:55.565Z,99.99
2024-05-09T03:08:55.486Z,99.99
2024-05-09T03:09:55.494Z,99.99
2024-05-09T03:10:55.588Z,99.99
2024-05-09T03:11:55.636Z,99.99
2024-05-09T03:12:55.417Z,99.99
2024-05-09T03:13:55.471Z,99.99
2024-05-09T03:14:55.405Z,99.99
2024-05-09T03:15:55.413Z,99.99
2024-05-09T03:16:55.542Z,99.99
2024-05-09T03:17:55.579Z,99.99
2024-05-09T03:18:55.586Z,99.99
2024-05-09T03:19:55.374Z,99.99
2024-05-09T03:20:55.444Z,99.99
2024-05-09T03:21:55.302Z,99.99
2024-05-09T03:22:56.928Z,99.99
2024-05-09T03:23:55.378Z,99.99
2024-05-09T03:24:55.261Z,99.99
2024-05-09T03:25:55.303Z,99.99
2024-05-09T03:26:55.250Z,99.99
2024-05-09T03:27:55.256Z,99.99
2024-05-09T03:28:55.287Z,99.99
2024-05-09T03:29:55.217Z,99.99
2024-05-09T03:30:55.186Z,99.99
2024-05-09T03:31:55.233Z,99.99
2024-05-09T03:32:55.318Z,99.99
2024-05-09T03:33:55.255Z,99.99
2024-05-09T03:34:55.178Z,99.99
2024-05-09T03:35:55.156Z,99.99
2024-05-09T03:36:55.112Z,99.99
2024-05-09T03:37:55.189Z,99.99
2024-05-09T03:38:55.097Z,99.99
2024-05-09T03:39:55.097Z,99.99
2024-05-09T03:40:55.099Z,99.99
2024-05-09T03:41:55.040Z,99.99
2024-05-09T03:42:55.038Z,99.99
2024-05-09T03:43:55.060Z,99.99
2024-05-09T03:44:55.013Z,99.99
2024-05-09T03:45:55.048Z,99.99
2024-05-09T03:46:55.104Z,99.99
2024-05-09T03:47:55.280Z,99.99
2024-05-09T03:48:55.109Z,99.99
2024-05-09T03:49:54.989Z,99.99
2024-05-09T03:50:55.024Z,99.99
2024-05-09T03:51:54.924Z,99.99
2024-05-09T03:52:54.955Z,99.99
2024-05-09T03:53:54.930Z,99.99
2024-05-09T03:54:54.877Z,99.99
2024-05-09T03:55:54.914Z,99.99
2024-05-09T03:56:54.867Z,99.99
2024-05-09T03:57:54.839Z,99.99
2024-05-09T03:58:54.901Z,99.99
2024-05-09T03:59:54.816Z,99.99
2024-05-09T04:00:54.837Z,99.99
2024-05-09T04:01:54.891Z,99.99
2024-05-09T04:02:54.885Z,99.99
2024-05-09T04:03:54.861Z,99.99
2024-05-09T04:04:54.863Z,99.99
2024-05-09T04:05:54.748Z,99.99
2024-05-09T04:06:54.781Z,99.99
2024-05-09T04:07:54.806Z,99.99
2024-05-09T04:08:54.761Z,99.99
2024-05-09T04:09:54.710Z,99.99
2024-05-09T04:10:54.750Z,99.99
2024-05-09T04:11:54.889Z,99.99
2024-05-09T04:12:54.663Z,99.99
2024-05-09T04:13:54.670Z,99.99
2024-05-09T04:14:54.615Z,99.99
2024-05-09T04:15:54.609Z,99.99
2024-05-09T04:16:54.732Z,99.99
2024-05-09T04:17:54.811Z,99.99
2024-05-09T04:18:54.683Z,99.99
2024-05-09T04:19:54.655Z,99.99
2024-05-09T04:20:54.576Z,99.99
2024-05-09T04:21:54.531Z,99.99
2024-05-09T04:22:54.602Z,99.99
2024-05-09T04:23:54.503Z,99.99
2024-05-09T04:24:54.513Z,99.99
2024-05-09T04:25:54.533Z,99.99
2024-05-09T04:26:54.474Z,99.99
2024-05-09T04:27:54.520Z,99.99
2024-05-09T04:28:54.461Z,99.99
2024-05-09T04:29:54.438Z,99.99
2024-05-09T04:30:54.438Z,99.99
2024-05-09T04:31:54.566Z,99.99
2024-05-09T04:32:54.735Z,99.99
2024-05-09T04:33:54.579Z,99.99
2024-05-09T04:34:54.394Z,99.99
2024-05-09T04:35:54.354Z,99.99
2024-05-09T04:36:54.342Z,99.99
2024-05-09T04:37:54.392Z,99.99
2024-05-09T04:38:54.315Z,99.99
2024-05-09T04:39:54.346Z,99.99
2024-05-09T04:40:54.334Z,99.99
2024-05-09T04:41:54.271Z,99.99
2024-05-09T04:42:54.273Z,99.99
2024-05-09T04:43:54.315Z,99.99
2024-05-09T04:44:56.502Z,99.99
2024-05-09T04:45:54.237Z,99.99
2024-05-09T04:46:54.256Z,99.99
2024-05-09T04:47:54.346Z,99.99
2024-05-09T04:48:54.318Z,99.99
2024-05-09T04:49:54.576Z,99.99
2024-05-09T04:50:54.251Z,99.99
2024-05-09T04:51:54.209Z,99.99
2024-05-09T04:52:54.396Z,99.99
2024-05-09T04:53:54.158Z,99.99
2024-05-09T04:54:57.554Z,99.99
2024-05-09T04:55:54.291Z,99.99
2024-05-09T04:56:54.144Z,99.99
2024-05-09T04:57:54.118Z,99.99
2024-05-09T04:58:54.212Z,99.99
2024-05-09T04:59:54.260Z,99.99
2024-05-09T05:00:54.219Z,99.99
2024-05-09T05:01:54.383Z,99.99
2024-05-09T05:02:54.320Z,99.99
2024-05-09T05:03:55.872Z,99.99
2024-05-09T05:04:54.125Z,99.99
2024-05-09T05:05:54.040Z,99.99
2024-05-09T05:06:54.003Z,99.99
2024-05-09T05:07:53.970Z,99.99
2024-05-09T05:08:53.917Z,99.99
2024-05-09T05:09:53.955Z,99.99
2024-05-09T05:10:54.041Z,99.99
2024-05-09T05:11:53.981Z,99.99
2024-05-09T05:12:53.923Z,99.99
2024-05-09T05:13:53.930Z,99.99
2024-05-09T05:14:53.856Z,99.99
2024-05-09T05:15:53.894Z,99.99
2024-05-09T05:16:53.885Z,99.99
2024-05-09T05:17:53.950Z,99.99
2024-05-09T05:18:54.910Z,99.99
2024-05-09T05:19:53.917Z,99.99
2024-05-09T05:20:53.829Z,99.99
2024-05-09T05:21:53.853Z,99.99
2024-05-09T05:22:53.796Z,99.99
2024-05-09T05:23:53.788Z,99.99
2024-05-09T05:24:53.744Z,99.99
2024-05-09T05:25:54.425Z,99.99
2024-05-09T05:26:53.713Z,99.99
2024-05-09T05:27:53.756Z,99.99
2024-05-09T05:28:53.775Z,99.99
2024-05-09T05:29:53.654Z,99.99
2024-05-09T05:30:53.658Z,99.99
2024-05-09T05:31:53.709Z,99.99
2024-05-09T05:32:53.737Z,99.99
2024-05-09T05:33:53.764Z,99.99
2024-05-09T05:34:53.636Z,99.99
2024-05-09T05:35:53.578Z,99.99
2024-05-09T05:36:53.563Z,99.99
2024-05-09T05:37:53.567Z,99.99
2024-05-09T05:38:53.560Z,99.99
2024-05-09T05:39:53.542Z,99.99
2024-05-09T05:40:53.582Z,99.99
2024-05-09T05:41:53.513Z,99.99
2024-05-09T05:42:53.504Z,99.99
2024-05-09T05:43:53.543Z,99.99
2024-05-09T05:44:53.487Z,99.99
2024-05-09T05:45:53.478Z,99.99
2024-05-09T05:46:53.518Z,99.99
2024-05-09T05:47:53.564Z,99.99
2024-05-09T05:48:53.605Z,99.99
2024-05-09T05:49:53.530Z,99.99
2024-05-09T05:50:53.492Z,99.99
2024-05-09T05:51:53.383Z,99.99
2024-05-09T05:52:53.385Z,99.99
2024-05-09T05:53:53.359Z,99.99
2024-05-09T05:54:53.375Z,99.99
2024-05-09T05:55:53.403Z,99.99
2024-05-09T05:56:53.338Z,99.99
2024-05-09T05:57:53.316Z,99.99
2024-05-09T05:58:53.319Z,99.99
2024-05-09T05:59:53.316Z,99.99
2024-05-09T06:00:53.502Z,99.99
2024-05-09T06:01:53.332Z,99.99
2024-05-09T06:02:53.415Z,99.99
2024-05-09T06:03:53.448Z,99.99
2024-05-09T06:04:53.336Z,99.99
2024-05-09T06:05:53.284Z,99.99
2024-05-09T06:06:53.324Z,99.99
2024-05-09T06:07:53.257Z,99.99
2024-05-09T06:08:53.293Z,99.99
2024-05-09T06:09:53.210Z,99.99
2024-05-09T06:10:53.253Z,99.99
2024-05-09T06:11:53.264Z,99.99
2024-05-09T06:12:53.155Z,99.99
2024-05-09T06:13:53.194Z,99.99
2024-05-09T06:14:53.091Z,99.99
2024-05-09T06:15:53.122Z,99.99
2024-05-09T06:16:54.697Z,99.99
2024-05-09T06:17:53.250Z,99.99
2024-05-09T06:18:53.298Z,99.99
2024-05-09T06:19:53.349Z,99.99
2024-05-09T06:20:53.071Z,99.99
2024-05-09T06:21:53.017Z,99.99
2024-05-09T06:22:53.157Z,99.99
2024-05-09T06:23:52.991Z,99.99
2024-05-09T06:24:52.975Z,99.99
2024-05-09T06:25:52.984Z,99.99
2024-05-09T06:26:52.952Z,99.99
2024-05-09T06:27:53.021Z,99.99
2024-05-09T06:28:52.994Z,99.99
2024-05-09T06:29:52.896Z,99.99
2024-05-09T06:30:52.907Z,99.99
2024-05-09T06:31:52.864Z,99.99
2024-05-09T06:32:53.712Z,99.99
2024-05-09T06:33:53.047Z,99.99
2024-05-09T06:34:53.023Z,99.99
2024-05-09T06:35:53.243Z,99.99
2024-05-09T06:36:52.856Z,99.99
2024-05-09T06:37:52.878Z,99.99
2024-05-09T06:38:52.849Z,99.99
2024-05-09T06:39:52.753Z,99.99
2024-05-09T06:40:52.795Z,99.99
2024-05-09T06:41:52.731Z,99.99
2024-05-09T06:42:52.746Z,99.99
2024-05-09T06:43:52.800Z,99.99
2024-05-09T06:44:52.945Z,99.99
2024-05-09T06:45:52.961Z,99.99
2024-05-09T06:46:53.626Z,99.99
2024-05-09T06:47:52.873Z,99.99
2024-05-09T06:48:53.226Z,99.99
2024-05-09T06:49:52.834Z,99.99
2024-05-09T06:50:52.807Z,99.99
2024-05-09T06:51:52.682Z,99.99
2024-05-09T06:52:52.716Z,99.99
2024-05-09T06:53:52.981Z,99.99
2024-05-09T06:54:52.611Z,99.99
2024-05-09T06:55:52.786Z,99.99
2024-05-09T06:56:52.693Z,99.99
2024-05-09T06:57:52.624Z,99.99
2024-05-09T06:58:52.598Z,99.99
2024-05-09T06:59:52.584Z,99.99
2024-05-09T07:00:52.704Z,99.99
2024-05-09T07:01:52.542Z,99.99
2024-05-09T07:02:52.630Z,99.99
2024-05-09T07:03:52.677Z,99.99
2024-05-09T07:04:52.941Z,99.99
2024-05-09T07:05:52.612Z,99.99
2024-05-09T07:06:52.432Z,99.99
2024-05-09T07:07:53.355Z,99.99
2024-05-09T07:08:52.722Z,99.99
2024-05-09T07:09:52.437Z,99.99
2024-05-09T07:10:52.600Z,99.99
2024-05-09T07:11:52.471Z,98.15
2024-05-09T07:12:52.343Z,98.50
2024-05-09T07:13:52.420Z,98.96
2024-05-09T07:14:52.506Z,99.37
2024-05-09T07:15:52.339Z,99.88
2024-05-09T07:16:52.413Z,99.99
2024-05-09T07:17:52.645Z,99.99
2024-05-09T07:18:52.698Z,99.99
2024-05-09T07:19:52.488Z,99.99
2024-05-09T07:20:52.318Z,99.99
2024-05-09T07:21:52.374Z,99.07
2024-05-09T07:22:52.352Z,98.66
2024-05-09T07:23:52.397Z,98.30
2024-05-09T07:24:52.507Z,98.40
2024-05-09T07:25:52.294Z,98.45
2024-05-09T07:26:52.375Z,99.47
2024-05-09T07:27:52.309Z,99.99
2024-05-09T07:28:52.350Z,99.99
2024-05-09T07:29:52.805Z,99.99
2024-05-09T07:30:52.110Z,99.99
2024-05-09T07:31:52.156Z,99.73
2024-05-09T07:32:52.201Z,99.99
2024-05-09T07:33:52.154Z,98.91
2024-05-09T07:34:52.095Z,99.63
2024-05-09T07:35:52.217Z,99.27
2024-05-09T07:36:52.016Z,99.07
2024-05-09T07:37:52.062Z,98.97
2024-05-09T07:38:52.062Z,99.58
2024-05-09T07:39:52.022Z,99.79
2024-05-09T07:40:52.204Z,98.11
2024-05-09T07:41:52.748Z,99.33
2024-05-09T07:42:52.745Z,97.70
2024-05-09T07:43:52.818Z,95.70
2024-05-09T07:44:52.008Z,96.42
2024-05-09T07:45:54.539Z,97.70
2024-05-09T07:48:13.594Z,97.19
2024-05-09T07:51:32.710Z,97.75
2024-05-09T07:53:37.347Z,96.53
2024-05-09T07:53:51.965Z,95.67
2024-05-09T07:54:24.196Z,95.77
2024-05-09T07:55:24.080Z,95.67
2024-05-09T07:56:24.910Z,97.16
2024-05-09T07:57:23.979Z,95.62
2024-05-09T07:58:24.713Z,94.05
2024-05-09T07:59:23.996Z,93.03
2024-05-09T08:00:30.896Z,94.35
2024-05-09T08:01:24.002Z,95.58
2024-05-09T08:02:24.041Z,92.11
2024-05-09T08:03:24.306Z,93.24
2024-05-09T08:04:26.584Z,90.79
2024-05-09T08:05:24.300Z,93.85
2024-05-09T08:06:23.977Z,92.32
2024-05-09T08:07:24.002Z,88.65
2024-05-09T08:08:23.824Z,90.48
2024-05-09T08:09:23.811Z,91.50
2024-05-09T08:10:28.556Z,91.30
2024-05-09T08:11:24.145Z,90.55
2024-05-09T08:12:23.962Z,89.32
2024-05-09T08:13:23.819Z,89.12
2024-05-09T08:14:23.773Z,91.05
2024-05-09T08:15:23.927Z,88.40
2024-05-09T08:16:23.988Z,89.73
2024-05-09T08:17:23.910Z,87.18
2024-05-09T08:18:23.887Z,86.57
2024-05-09T08:19:23.900Z,87.85
2024-05-09T08:20:30.957Z,88.26
2024-05-09T08:21:23.721Z,85.61
2024-05-09T08:22:23.888Z,85.51
2024-05-09T08:23:23.783Z,82.66
2024-05-09T08:24:23.653Z,85.00
2024-05-09T08:25:23.695Z,86.94
2024-05-09T08:26:23.662Z,84.15
2024-05-09T08:27:23.730Z,84.76
2024-05-09T08:28:23.653Z,82.73
2024-05-09T08:29:23.826Z,82.18
2024-05-09T08:30:30.138Z,82.79
2024-05-09T08:31:23.641Z,87.47
2024-05-09T08:32:23.675Z,85.43
2024-05-09T08:33:23.770Z,81.06
2024-05-09T08:34:23.756Z,82.85
2024-05-09T08:35:23.778Z,84.62
2024-05-09T08:36:23.542Z,88.89
2024-05-09T08:37:27.650Z,87.32
2024-05-09T08:38:23.648Z,85.39
2024-05-09T08:39:23.749Z,86.31
2024-05-09T08:40:30.883Z,87.38
2024-05-09T08:41:23.436Z,85.55
2024-05-09T08:42:23.609Z,86.22
2024-05-09T08:43:23.746Z,85.11
2024-05-09T08:44:23.471Z,84.40
2024-05-09T08:45:23.418Z,82.87
2024-05-09T08:46:23.439Z,83.38
2024-05-09T08:47:23.418Z,81.45
2024-05-09T08:48:23.528Z,84.91
2024-05-09T08:49:23.485Z,82.87
2024-05-09T08:50:32.154Z,81.56
2024-05-09T08:51:23.314Z,82.67
2024-05-09T08:52:23.292Z,83.08
2024-05-09T08:53:23.339Z,83.08
2024-05-09T08:54:23.266Z,85.82
2024-05-09T08:55:23.836Z,85.88
2024-05-09T08:56:23.333Z,80.40
2024-05-09T08:57:23.211Z,81.52
2024-05-09T08:58:23.303Z,79.49
2024-05-09T08:59:23.734Z,81.11
2024-05-09T09:00:33.446Z,80.87
2024-05-09T09:01:23.411Z,83.10
2024-05-09T09:02:23.467Z,81.78
2024-05-09T09:03:23.189Z,79.25
2024-05-09T09:04:23.473Z,77.66
2024-05-09T09:05:23.369Z,81.68
2024-05-09T09:06:23.279Z,79.65
2024-05-09T09:07:23.217Z,80.26
2024-05-09T09:08:23.157Z,82.25
2024-05-09T09:09:22.994Z,84.18
2024-05-09T09:10:29.743Z,78.26
2024-05-09T09:11:23.220Z,78.36
2024-05-09T09:12:23.057Z,81.20
2024-05-09T09:13:23.156Z,75.62
2024-05-09T09:14:22.955Z,77.65
2024-05-09T09:15:23.332Z,80.90
2024-05-09T09:16:23.295Z,78.12
2024-05-09T09:17:23.280Z,74.37
2024-05-09T09:18:23.133Z,75.69
2024-05-09T09:19:23.207Z,80.76
2024-05-09T09:20:28.708Z,77.51
2024-05-09T09:21:22.968Z,74.27
2024-05-09T09:22:22.946Z,77.41
2024-05-09T09:23:22.950Z,72.99
2024-05-09T09:24:22.877Z,75.82
2024-05-09T09:25:22.962Z,75.01
2024-05-09T09:26:22.829Z,74.41
2024-05-09T09:27:22.931Z,74.10
2024-05-09T09:28:23.062Z,75.42
2024-05-09T09:29:22.803Z,74.51
2024-05-09T09:30:34.451Z,74.00
2024-05-09T09:31:22.945Z,75.18
2024-05-09T09:32:22.900Z,74.48
2024-05-09T09:33:23.030Z,75.49
2024-05-09T09:34:22.930Z,74.37
2024-05-09T09:35:23.053Z,76.29
2024-05-09T09:36:22.728Z,74.68
2024-05-09T09:37:22.772Z,74.77
2024-05-09T09:38:22.642Z,74.04
2024-05-09T09:39:22.614Z,71.60
2024-05-09T09:40:29.295Z,75.85
2024-05-09T09:41:22.614Z,76.97
2024-05-09T09:42:22.589Z,73.93
2024-05-09T09:43:23.253Z,74.04
2024-05-09T09:44:22.536Z,74.30
2024-05-09T09:45:22.591Z,71.60
2024-05-09T09:46:22.523Z,73.53
2024-05-09T09:47:22.533Z,72.72
2024-05-09T09:48:23.302Z,74.51
2024-05-09T09:49:22.507Z,74.51
2024-05-09T09:50:27.948Z,71.33
2024-05-09T09:51:22.487Z,75.28
2024-05-09T09:52:22.555Z,79.73
2024-05-09T09:53:22.452Z,74.23
2024-05-09T09:54:22.701Z,73.72
2024-05-09T09:55:22.539Z,72.28
2024-05-09T09:56:22.586Z,72.31
2024-05-09T09:57:22.445Z,73.63
2024-05-09T09:58:22.699Z,71.94
2024-05-09T09:59:22.560Z,73.63
2024-05-09T10:00:27.402Z,71.60
2024-05-09T10:01:22.799Z,71.91
2024-05-09T10:02:22.782Z,72.78
2024-05-09T10:03:22.529Z,74.10
2024-05-09T10:04:22.496Z,71.94
2024-05-09T10:05:22.613Z,71.00
2024-05-09T10:06:22.492Z,68.04
2024-05-09T10:07:22.358Z,69.42
2024-05-09T10:08:22.268Z,67.19
2024-05-09T10:09:22.254Z,67.10
2024-05-09T10:10:29.900Z,67.27
2024-05-09T10:11:22.503Z,69.55
2024-05-09T10:12:22.298Z,68.24
2024-05-09T10:13:22.378Z,66.60
2024-05-09T10:14:22.405Z,64.58
2024-05-09T10:15:22.261Z,68.68
2024-05-09T10:16:22.393Z,67.20
2024-05-09T10:17:22.141Z,64.48
2024-05-09T10:18:22.163Z,67.60
2024-05-09T10:19:22.131Z,64.07
2024-05-09T10:20:27.745Z,62.97
2024-05-09T10:21:22.087Z,68.71
2024-05-09T10:22:22.116Z,66.49
2024-05-09T10:23:22.132Z,65.92
2024-05-09T10:24:22.049Z,65.75
2024-05-09T10:25:22.242Z,65.39
2024-05-09T10:26:22.102Z,65.06
2024-05-09T10:27:21.979Z,66.00
2024-05-09T10:28:21.976Z,63.08
2024-05-09T10:29:21.964Z,63.48
2024-05-09T10:31:21.982Z,64.99
2024-05-09T10:32:21.943Z,66.91
2024-05-09T10:33:21.981Z,65.84
2024-05-09T10:34:22.250Z,64.28
2024-05-09T10:35:21.880Z,62.14
2024-05-09T10:36:21.882Z,60.84
2024-05-09T10:37:21.952Z,59.94
2024-05-09T10:38:21.824Z,59.16
2024-05-09T10:39:21.850Z,61.17
2024-05-09T10:40:26.610Z,56.26
2024-05-09T10:41:21.866Z,63.67
2024-05-09T10:42:21.893Z,58.62
2024-05-09T10:43:21.887Z,60.35
2024-05-09T10:44:21.778Z,58.75
2024-05-09T10:45:21.735Z,59.79
2024-05-09T10:46:22.021Z,58.73
2024-05-09T10:47:21.784Z,59.44
2024-05-09T10:48:21.783Z,58.83
2024-05-09T10:49:21.774Z,57.13
2024-05-09T10:50:28.183Z,59.42
2024-05-09T10:51:21.700Z,62.58
2024-05-09T10:52:21.841Z,62.64
2024-05-09T10:53:21.650Z,64.51
2024-05-09T10:54:21.642Z,64.21
2024-05-09T10:55:22.070Z,69.79
2024-05-09T10:56:21.618Z,74.68
2024-05-09T10:57:21.576Z,60.49
2024-05-09T10:58:21.639Z,66.72
2024-05-09T10:59:21.581Z,57.80
2024-05-09T11:00:27.740Z,55.80
2024-05-09T11:01:21.678Z,58.76
2024-05-09T11:02:21.632Z,55.55
2024-05-09T11:03:21.626Z,55.98
2024-05-09T11:04:21.776Z,56.61
2024-05-09T11:05:21.884Z,60.42
2024-05-09T11:06:21.481Z,57.14
2024-05-09T11:07:21.621Z,57.31
2024-05-09T11:08:21.451Z,56.48
2024-05-09T11:09:21.453Z,57.96
2024-05-09T11:10:27.736Z,56.34
2024-05-09T11:11:21.879Z,59.03
2024-05-09T11:12:23.536Z,57.78
2024-05-09T11:13:21.430Z,65.56
2024-05-09T11:14:21.403Z,66.67
2024-05-09T11:15:21.356Z,59.76
2024-05-09T11:16:21.785Z,64.42
2024-05-09T11:17:21.489Z,65.53
2024-05-09T11:18:24.639Z,62.51
2024-05-09T11:19:21.446Z,60.25
2024-05-09T11:20:29.086Z,62.64
2024-05-09T11:21:21.428Z,60.65
2024-05-09T11:22:21.365Z,59.62
2024-05-09T11:23:21.249Z,60.32
2024-05-09T11:24:21.295Z,60.96
2024-05-09T11:25:21.263Z,63.51
2024-05-09T11:26:21.233Z,65.19
2024-05-09T11:27:21.207Z,59.96
2024-05-09T11:28:21.272Z,63.56
2024-05-09T11:29:21.241Z,64.73
2024-05-09T11:30:26.996Z,61.69
2024-05-09T11:31:21.488Z,60.68
2024-05-09T11:32:21.190Z,60.58
2024-05-09T11:33:21.159Z,63.67
2024-05-09T11:34:21.169Z,58.54
2024-05-09T11:35:21.108Z,62.96
2024-05-09T11:36:21.099Z,61.93
2024-05-09T11:37:21.147Z,55.53
2024-05-09T11:38:21.115Z,57.84
2024-05-09T11:39:21.180Z,61.52
2024-05-09T11:40:25.639Z,56.41
2024-05-09T11:41:21.036Z,60.82
2024-05-09T11:42:21.007Z,56.91
2024-05-09T11:43:21.341Z,58.44
2024-05-09T11:44:21.029Z,57.94
2024-05-09T11:45:21.121Z,62.36
2024-05-09T11:46:21.061Z,57.26
2024-05-09T11:47:21.077Z,58.67
2024-05-09T11:48:21.125Z,59.85
2024-05-09T11:49:23.128Z,58.40
2024-05-09T11:50:27.203Z,55.43
2024-05-09T11:51:20.889Z,56.48
2024-05-09T11:52:20.939Z,54.45
2024-05-09T11:53:20.939Z,57.57
2024-05-09T11:54:20.839Z,57.77
2024-05-09T11:55:22.050Z,60.75
2024-05-09T11:56:20.850Z,61.43
2024-05-09T11:57:20.811Z,61.13
2024-05-09T11:58:20.981Z,57.21
2024-05-09T11:59:20.789Z,57.51
2024-05-09T12:00:29.244Z,55.80
2024-05-09T12:01:22.033Z,57.81
2024-05-09T12:02:20.888Z,53.90
2024-05-09T12:03:20.835Z,58.87
2024-05-09T12:04:20.883Z,59.88
2024-05-09T12:05:21.102Z,59.34
2024-05-09T12:06:20.699Z,57.77
2024-05-09T12:07:20.745Z,58.07
2024-05-09T12:08:20.688Z,55.16
2024-05-09T12:09:20.693Z,61.99
2024-05-09T12:10:26.040Z,59.55
2024-05-09T12:11:20.689Z,60.55
2024-05-09T12:12:20.627Z,60.05
2024-05-09T12:13:20.693Z,60.45
2024-05-09T12:14:20.651Z,56.30
2024-05-09T12:15:20.582Z,59.45
2024-05-09T12:16:20.805Z,60.85
2024-05-09T12:17:20.804Z,56.54
2024-05-09T12:18:20.571Z,59.65
2024-05-09T12:19:20.667Z,56.30
2024-05-09T12:20:28.569Z,54.02
2024-05-09T12:21:20.506Z,54.45
2024-05-09T12:22:20.530Z,59.78
2024-05-09T12:23:20.498Z,58.67
2024-05-09T12:24:20.499Z,56.89
2024-05-09T12:25:20.532Z,60.98
2024-05-09T12:26:20.572Z,61.49
2024-05-09T12:27:20.430Z,58.00
2024-05-09T12:28:20.470Z,57.19
2024-05-09T12:29:20.426Z,60.31
2024-05-09T12:30:32.263Z,58.40
2024-05-09T12:31:20.435Z,62.79
2024-05-09T12:32:20.445Z,61.38
2024-05-09T12:33:20.617Z,56.49
2024-05-09T12:34:20.394Z,59.30
2024-05-09T12:35:20.388Z,57.67
2024-05-09T12:36:20.364Z,57.19
2024-05-09T12:37:20.407Z,58.67
2024-05-09T12:38:20.290Z,55.96
2024-05-09T12:39:20.285Z,57.57
2024-05-09T12:40:26.856Z,56.76
2024-05-09T12:41:20.247Z,59.58
2024-05-09T12:42:27.140Z,63.46
2024-05-09T12:43:20.289Z,56.34
2024-05-09T12:44:20.236Z,58.81
2024-05-09T12:45:20.197Z,55.71
2024-05-09T12:46:20.306Z,60.12
2024-05-09T12:47:20.282Z,54.25
2024-05-09T12:48:20.277Z,56.99
2024-05-09T12:49:20.613Z,66.67
2024-05-09T12:50:29.127Z,58.44
2024-05-09T12:51:20.127Z,56.93
2024-05-09T12:52:20.263Z,56.93
2024-05-09T12:53:20.142Z,58.75
2024-05-09T12:54:20.077Z,54.30
2024-05-09T12:55:20.132Z,56.81
2024-05-09T12:56:20.135Z,58.64
2024-05-09T12:57:20.051Z,61.83